Time;durP1;ratioP1;P1;durP2;ratioP2;P2;SDS_P1;SDS_P2;PMS_P1;PMS_P2;Temp;Humidity;BMP_temperature;BMP_pressure;BME280_temperature;BME280_humidity;BME280_pressure;Samples;Min_cycle;Max_cycle;Signal;HPM_P1;HPM_P2
2023/07/02 00:01:35;;;;;;;10.75;7.95;;;27.50;99.90;;;;;;4954713;23;20630;-52
2023/07/02 00:04:00;;;;;;;13.38;9.48;;;27.50;99.90;;;;;;4936943;29;20035;-52
2023/07/02 00:06:26;;;;;;;14.48;9.15;;;27.50;99.90;;;;;;4951756;29;20038;-52
2023/07/02 00:08:52;;;;;;;14.88;8.93;;;27.50;99.90;;;;;;4956050;29;20036;-51
2023/07/02 00:11:17;;;;;;;14.52;8.88;;;27.50;99.90;;;;;;4939994;29;20028;-51
2023/07/02 00:13:43;;;;;;;14.50;8.85;;;27.40;99.90;;;;;;4948041;29;20024;-52
2023/07/02 00:16:09;;;;;;;13.43;7.82;;;27.40;99.90;;;;;;4936317;29;20062;-51
2023/07/02 00:18:35;;;;;;;15.88;9.10;;;27.40;99.90;;;;;;4936626;29;20028;-51
2023/07/02 00:21:04;;;;;;;14.52;8.55;;;27.40;99.90;;;;;;4936348;29;20030;-51
2023/07/02 00:23:30;;;;;;;12.45;8.15;;;27.40;99.90;;;;;;4936638;29;20020;-52
2023/07/02 00:25:57;;;;;;;14.57;8.38;;;27.30;99.90;;;;;;4947403;29;20380;-51
2023/07/02 00:28:23;;;;;;;13.30;8.23;;;27.30;99.90;;;;;;4937054;29;20540;-51
2023/07/02 00:30:49;;;;;;;16.13;8.95;;;27.30;99.90;;;;;;4936253;29;20472;-52
2023/07/02 00:33:16;;;;;;;11.65;8.18;;;27.30;99.90;;;;;;4948708;29;20041;-51
2023/07/02 00:35:41;;;;;;;14.65;8.07;;;27.20;99.90;;;;;;4936036;29;20028;-52
2023/07/02 00:38:07;;;;;;;11.65;8.63;;;27.20;99.90;;;;;;4934629;29;20035;-51
2023/07/02 00:40:33;;;;;;;13.38;7.95;;;27.20;99.90;;;;;;4947846;29;20027;-52
2023/07/02 00:42:58;;;;;;;14.90;9.20;;;27.20;99.90;;;;;;4936558;29;20028;-51
2023/07/02 00:45:27;;;;;;;13.93;8.95;;;27.20;99.90;;;;;;4935980;29;20473;-51
2023/07/02 00:47:55;;;;;;;12.43;8.27;;;27.20;99.90;;;;;;4948434;29;20031;-52
2023/07/02 00:50:23;;;;;;;;;;;27.20;99.90;;;;;;4945863;29;20058;-51
2023/07/02 00:52:49;;;;;;;13.88;8.05;;;27.10;99.90;;;;;;4952738;28;19907;-51
2023/07/02 00:55:15;;;;;;;15.68;7.40;;;27.10;99.90;;;;;;4924251;29;20433;-52
2023/07/02 00:57:46;;;;;;;12.02;7.78;;;27.10;99.90;;;;;;4949318;29;20039;-51
2023/07/02 01:02:44;;;;;;;14.23;7.93;;;27.10;99.90;;;;;;4915401;29;20072;-54
2023/07/02 01:05:15;;;;;;;12.55;8.07;;;27.10;99.90;;;;;;4916418;29;20379;-54
2023/07/02 01:07:40;;;;;;;18.80;8.20;;;27.10;99.90;;;;;;4916215;29;20032;-54
2023/07/02 01:10:06;;;;;;;13.95;8.13;;;27.10;99.90;;;;;;4916466;29;20063;-54
2023/07/02 01:12:33;;;;;;;15.68;7.72;;;27.10;99.90;;;;;;4915289;29;20099;-54
2023/07/02 01:15:02;;;;;;;13.03;8.07;;;27.00;99.90;;;;;;4915048;29;20035;-54
2023/07/02 01:17:37;;;;;;;12.40;8.07;;;27.00;99.90;;;;;;4915189;29;20039;-55
2023/07/02 01:20:03;;;;;;;11.75;7.93;;;27.00;99.90;;;;;;4916289;29;20039;-54
2023/07/02 01:22:30;;;;;;;11.45;8.57;;;27.00;99.90;;;;;;4930810;29;20493;-55
2023/07/02 01:24:57;;;;;;;13.13;7.75;;;27.00;99.90;;;;;;4916059;29;20039;-53
2023/07/02 01:27:23;;;;;;;13.70;7.70;;;27.00;99.90;;;;;;4915991;29;20028;-53
2023/07/02 01:29:52;;;;;;;18.90;8.63;;;27.00;99.90;;;;;;4916205;29;20107;-53
2023/07/02 01:32:18;;;;;;;9.05;6.72;;;27.00;99.90;;;;;;4916072;29;20058;-53
2023/07/02 01:34:48;;;;;;;9.48;7.47;;;27.00;99.90;;;;;;4915937;29;20504;-53
2023/07/02 01:37:18;;;;;;;12.68;7.22;;;27.00;99.90;;;;;;4916135;29;20033;-54
2023/07/02 01:39:44;;;;;;;13.50;6.75;;;26.90;99.90;;;;;;4916008;29;20857;-54
2023/07/02 01:42:15;;;;;;;17.23;8.35;;;26.90;99.90;;;;;;4915870;29;20016;-54
2023/07/02 01:44:42;;;;;;;13.02;7.22;;;26.90;99.90;;;;;;4915895;29;20469;-54
2023/07/02 01:47:08;;;;;;;14.95;7.90;;;26.90;99.90;;;;;;4916171;29;20071;-53
2023/07/02 01:49:34;;;;;;;13.57;7.85;;;26.90;99.90;;;;;;4915864;29;20466;-54
2023/07/02 01:52:00;;;;;;;11.02;7.18;;;26.90;99.90;;;;;;4930545;29;20033;-54
2023/07/02 01:54:27;;;;;;;10.13;7.15;;;26.90;99.90;;;;;;4916069;29;20028;-54
2023/07/02 01:56:53;;;;;;;12.45;6.97;;;26.90;99.90;;;;;;4915868;29;20079;-55
2023/07/02 01:59:19;;;;;;;14.15;7.55;;;26.90;99.90;;;;;;4915769;29;20805;-53
2023/07/02 02:01:45;;;;;;;11.77;7.03;;;26.90;99.90;;;;;;4944422;23;20103;-58
2023/07/02 02:04:12;;;;;;;10.52;6.97;;;26.90;99.90;;;;;;4935254;29;20078;-58
2023/07/02 02:06:39;;;;;;;13.35;7.20;;;26.80;99.90;;;;;;4947430;29;20023;-58
2023/07/02 02:09:05;;;;;;;15.10;6.95;;;26.80;99.90;;;;;;4934782;29;20084;-57
2023/07/02 02:11:32;;;;;;;13.90;7.82;;;26.90;99.90;;;;;;4939303;29;20062;-59
2023/07/02 02:14:01;;;;;;;13.70;7.20;;;26.80;99.90;;;;;;4942468;28;20055;-58
2023/07/02 02:16:27;;;;;;;10.85;6.85;;;26.90;99.90;;;;;;4934729;29;20031;-58
2023/07/02 02:18:53;;;;;;;13.30;6.82;;;26.90;99.90;;;;;;4944641;29;20019;-58
2023/07/02 02:21:22;;;;;;;9.95;6.35;;;26.80;99.90;;;;;;4937175;28;20107;-58
2023/07/02 02:23:48;;;;;;;9.88;6.88;;;26.90;99.90;;;;;;4938428;29;20024;-57
2023/07/02 02:26:15;;;;;;;9.90;7.07;;;26.90;99.90;;;;;;4951143;29;20046;-57
2023/07/02 02:28:42;;;;;;;10.65;6.70;;;26.90;99.90;;;;;;4946571;29;20032;-57
2023/07/02 02:31:07;;;;;;;12.63;6.68;;;26.90;99.90;;;;;;4941853;28;20126;-58
2023/07/02 02:33:35;;;;;;;14.43;7.05;;;26.90;99.90;;;;;;4938407;29;20032;-57
2023/07/02 02:36:01;;;;;;;11.43;6.55;;;26.90;99.90;;;;;;4938069;29;20026;-58
2023/07/02 02:38:27;;;;;;;10.63;6.65;;;26.90;99.90;;;;;;4938258;29;20067;-58
2023/07/02 02:40:52;;;;;;;8.82;6.97;;;26.90;99.90;;;;;;4938097;29;20043;-58
2023/07/02 02:43:18;;;;;;;9.63;6.35;;;26.90;99.90;;;;;;4937748;29;20027;-58
2023/07/02 02:45:44;;;;;;;12.00;7.47;;;26.90;99.90;;;;;;4952510;29;20038;-58
2023/07/02 02:48:10;;;;;;;10.32;7.10;;;27.00;99.90;;;;;;4957389;28;20038;-57
2023/07/02 02:50:41;;;;;;;9.98;7.68;;;26.90;99.90;;;;;;4956920;28;20082;-57
2023/07/02 02:53:07;;;;;;;13.05;7.00;;;26.90;99.90;;;;;;4952830;28;20039;-57
2023/07/02 02:55:33;;;;;;;11.23;7.35;;;26.90;99.90;;;;;;4947813;29;20023;-57
2023/07/02 02:57:59;;;;;;;12.82;7.63;;;27.00;99.90;;;;;;4954781;29;20038;-57
2023/07/02 03:00:25;;;;;;;10.52;7.20;;;26.90;99.90;;;;;;4940312;29;20035;-57
2023/07/02 03:02:51;;;;;;;10.32;7.25;;;26.90;99.90;;;;;;4948521;28;20039;-57
2023/07/02 03:05:16;;;;;;;12.18;7.32;;;26.90;99.90;;;;;;4948366;29;20380;-56
2023/07/02 03:07:42;;;;;;;14.27;6.97;;;27.00;99.90;;;;;;4956492;28;20039;-57
2023/07/02 03:10:09;;;;;;;11.98;7.28;;;27.00;99.90;;;;;;4956706;28;20034;-57
2023/07/02 03:12:34;;;;;;;9.32;7.00;;;27.00;99.90;;;;;;4943866;28;20020;-57
2023/07/02 03:15:00;;;;;;;15.07;7.30;;;27.00;99.90;;;;;;4939927;29;20508;-58
2023/07/02 03:17:26;;;;;;;14.32;7.25;;;27.00;99.90;;;;;;4947619;29;20028;-57
2023/07/02 03:19:52;;;;;;;11.45;7.07;;;27.10;99.90;;;;;;4937158;29;20034;-57
2023/07/02 03:22:18;;;;;;;22.63;7.90;;;27.10;99.90;;;;;;4936086;29;20071;-57
2023/07/02 03:24:44;;;;;;;15.57;7.68;;;27.10;99.90;;;;;;4937518;29;20031;-57
2023/07/02 03:27:09;;;;;;;22.67;8.00;;;27.10;99.90;;;;;;4943348;29;20046;-57
2023/07/02 03:29:35;;;;;;;19.83;7.60;;;27.10;99.90;;;;;;4944268;28;20043;-57
2023/07/02 03:32:02;;;;;;;14.50;7.53;;;27.20;99.90;;;;;;4937245;29;20024;-57
2023/07/02 03:34:28;;;;;;;22.98;7.78;;;27.20;99.90;;;;;;4941487;29;20051;-57
2023/07/02 03:36:53;;;;;;;14.10;8.23;;;27.10;99.90;;;;;;4947829;28;20063;-57
2023/07/02 03:39:19;;;;;;;14.60;8.85;;;27.20;99.90;;;;;;4939014;29;20023;-57
2023/07/02 03:41:45;;;;;;;13.05;8.60;;;27.20;99.90;;;;;;4948308;28;20444;-57
2023/07/02 03:44:11;;;;;;;15.27;7.80;;;27.20;99.90;;;;;;4937174;29;20031;-57
2023/07/02 03:46:37;;;;;;;12.70;8.00;;;27.20;99.90;;;;;;4936949;29;20032;-56
2023/07/02 03:49:03;;;;;;;13.57;7.45;;;27.20;99.90;;;;;;4937112;29;20122;-56
2023/07/02 03:51:30;;;;;;;15.45;8.23;;;27.20;99.90;;;;;;4936658;29;20016;-57
2023/07/02 03:53:56;;;;;;;16.73;8.57;;;27.20;99.90;;;;;;4936827;29;20027;-57
2023/07/02 03:56:21;;;;;;;12.27;8.18;;;27.20;99.90;;;;;;4940540;29;20074;-57
2023/07/02 03:58:47;;;;;;;15.25;8.27;;;27.20;99.90;;;;;;4955734;29;20034;-57
2023/07/02 04:01:13;;;;;;;11.55;7.55;;;27.30;99.90;;;;;;4952480;28;20429;-57
2023/07/02 04:03:41;;;;;;;12.80;7.13;;;27.30;99.90;;;;;;4935572;29;20437;-57
2023/07/02 04:06:06;;;;;;;14.52;7.55;;;27.20;99.90;;;;;;4936552;29;20469;-57
2023/07/02 04:08:32;;;;;;;10.07;6.32;;;27.30;99.90;;;;;;4936532;29;20131;-57
2023/07/02 04:10:58;;;;;;;10.35;7.22;;;27.30;99.90;;;;;;4936637;29;20103;-57
2023/07/02 04:13:24;;;;;;;12.73;7.53;;;27.30;99.90;;;;;;4936396;29;20491;-57
2023/07/02 04:15:50;;;;;;;12.23;7.65;;;27.30;99.90;;;;;;4936521;29;20063;-57
2023/07/02 04:18:16;;;;;;;12.50;7.20;;;27.30;99.90;;;;;;4944874;29;20435;-57
2023/07/02 04:20:42;;;;;;;15.25;7.25;;;27.30;99.90;;;;;;4943004;29;20456;-57
2023/07/02 04:23:07;;;;;;;14.73;7.90;;;27.30;99.90;;;;;;4936289;29;20024;-56
2023/07/02 04:25:33;;;;;;;13.70;7.65;;;27.30;99.90;;;;;;4936449;29;20098;-57
2023/07/02 04:27:59;;;;;;;12.57;7.40;;;27.30;99.90;;;;;;4935853;29;20082;-57
2023/07/02 04:30:25;;;;;;;11.68;7.53;;;27.30;99.90;;;;;;4936221;29;20103;-56
2023/07/02 04:32:52;;;;;;;10.32;7.18;;;27.30;99.90;;;;;;4939556;29;20023;-57
2023/07/02 04:35:18;;;;;;;9.77;7.47;;;27.20;99.90;;;;;;4945252;28;20472;-56
2023/07/02 04:37:44;;;;;;;15.38;7.60;;;27.20;99.90;;;;;;4935982;29;20038;-56
2023/07/02 04:40:10;;;;;;;10.90;7.20;;;27.20;99.90;;;;;;4936129;29;20385;-56
2023/07/02 04:42:46;;;;;;;11.35;7.88;;;27.20;99.90;;;;;;4935773;29;20032;-56
2023/07/02 04:45:15;;;;;;;13.00;7.47;;;27.20;99.90;;;;;;4953537;28;20027;-56
2023/07/02 04:47:44;;;;;;;10.93;6.35;;;27.20;99.90;;;;;;4943156;28;20477;-56
2023/07/02 04:50:11;;;;;;;12.23;6.75;;;27.20;99.90;;;;;;4935868;29;20392;-56
2023/07/02 04:52:38;;;;;;;10.82;7.10;;;27.20;99.90;;;;;;4935960;29;20024;-56
2023/07/02 04:55:04;;;;;;;8.82;6.55;;;27.20;99.90;;;;;;4935645;29;20102;-56
2023/07/02 04:57:30;;;;;;;10.57;7.13;;;27.20;99.90;;;;;;4945296;29;20027;-57
2023/07/02 04:59:56;;;;;;;13.45;7.60;;;27.20;99.90;;;;;;4938821;28;20039;-56
2023/07/02 05:02:21;;;;;;;13.07;6.68;;;27.20;99.90;;;;;;4942700;29;20039;-57
2023/07/02 05:04:47;;;;;;;12.90;7.05;;;27.20;99.90;;;;;;4939425;29;20111;-57
2023/07/02 05:07:13;;;;;;;10.32;6.93;;;27.20;99.90;;;;;;4935601;29;20055;-57
2023/07/02 05:09:39;;;;;;;13.60;7.97;;;27.20;99.90;;;;;;4947803;29;20089;-57
2023/07/02 05:12:05;;;;;;;9.93;6.82;;;27.10;99.90;;;;;;4935800;29;20023;-57
2023/07/02 05:14:31;;;;;;;15.82;6.95;;;27.20;99.90;;;;;;4945040;29;20019;-57
2023/07/02 05:16:56;;;;;;;11.68;6.90;;;27.10;99.90;;;;;;4954161;29;20498;-56
2023/07/02 05:19:22;;;;;;;12.05;7.05;;;27.20;99.90;;;;;;4944556;29;20495;-57
2023/07/02 05:21:48;;;;;;;10.40;6.60;;;27.20;99.90;;;;;;4948258;29;20027;-57
2023/07/02 05:24:14;;;;;;;16.95;7.95;;;27.10;99.90;;;;;;4935349;29;20102;-57
2023/07/02 05:26:39;;;;;;;12.45;6.95;;;27.10;99.90;;;;;;4935404;29;20365;-57
2023/07/02 05:29:05;;;;;;;10.27;7.07;;;27.10;99.90;;;;;;4953850;29;20488;-57
2023/07/02 05:31:31;;;;;;;9.73;6.50;;;27.10;99.90;;;;;;4953798;29;20019;-57
2023/07/02 05:33:57;;;;;;;13.60;6.38;;;27.10;99.90;;;;;;4939017;29;20027;-56
2023/07/02 05:36:23;;;;;;;11.60;6.85;;;27.10;99.90;;;;;;4942324;29;20074;-56
2023/07/02 05:38:49;;;;;;;11.40;7.05;;;27.10;99.90;;;;;;4935083;29;20062;-56
2023/07/02 05:41:21;;;;;;;11.38;6.93;;;27.10;99.90;;;;;;4933770;29;20024;-56
2023/07/02 05:43:47;;;;;;;35.80;7.45;;;27.10;99.90;;;;;;4943905;29;20034;-56
2023/07/02 05:46:15;;;;;;;13.07;6.80;;;27.10;99.90;;;;;;4938845;28;20032;-56
2023/07/02 05:48:41;;;;;;;10.60;7.07;;;27.10;99.90;;;;;;4935050;29;20404;-56
2023/07/02 05:51:08;;;;;;;14.47;7.23;;;27.10;99.90;;;;;;4934703;29;20036;-56
2023/07/02 05:53:34;;;;;;;8.93;6.90;;;27.20;99.90;;;;;;4934784;29;20043;-56
2023/07/02 05:56:00;;;;;;;13.50;7.22;;;27.20;99.90;;;;;;4934353;29;20429;-56
2023/07/02 05:58:26;;;;;;;11.32;6.70;;;27.20;99.90;;;;;;4946863;29;20138;-57
2023/07/02 06:00:52;;;;;;;10.35;7.38;;;27.20;99.90;;;;;;4934572;29;20123;-56
2023/07/02 06:03:20;;;;;;;13.00;7.72;;;27.20;99.90;;;;;;4954032;29;20074;-57
2023/07/02 06:05:49;;;;;;;10.43;6.47;;;27.20;99.90;;;;;;4953160;28;20027;-56
2023/07/02 06:08:16;;;;;;;10.00;6.88;;;27.20;99.90;;;;;;4942190;29;20035;-58
2023/07/02 06:10:43;;;;;;;12.77;7.10;;;27.20;99.90;;;;;;4954096;28;20019;-58
2023/07/02 06:13:09;;;;;;;9.60;6.30;;;27.20;99.90;;;;;;4945988;28;20123;-57
2023/07/02 06:15:35;;;;;;;9.82;6.72;;;27.30;99.90;;;;;;4935574;29;20110;-57
2023/07/02 06:18:01;;;;;;;13.50;7.45;;;27.30;99.90;;;;;;4945093;29;20028;-56
2023/07/02 06:20:26;;;;;;;13.80;6.65;;;27.30;99.90;;;;;;4934373;29;20020;-56
2023/07/02 06:22:52;;;;;;;10.50;6.45;;;27.30;99.90;;;;;;4941723;29;20432;-56
2023/07/02 06:25:18;;;;;;;10.77;7.13;;;27.30;99.90;;;;;;4940689;28;20054;-54
2023/07/02 06:27:44;;;;;;;13.57;7.13;;;27.40;99.90;;;;;;4946752;28;20031;-57
2023/07/02 06:30:10;;;;;;;13.07;7.00;;;27.40;99.90;;;;;;4933275;29;20036;-57
2023/07/02 06:32:36;;;;;;;11.57;6.95;;;27.40;99.90;;;;;;4934502;29;20035;-57
2023/07/02 06:35:02;;;;;;;13.63;7.63;;;27.40;99.90;;;;;;4934473;29;20058;-57
2023/07/02 06:37:28;;;;;;;11.77;7.25;;;27.40;99.90;;;;;;4934482;29;20488;-57
2023/07/02 06:39:55;;;;;;;10.85;6.57;;;27.40;99.90;;;;;;4938950;29;20026;-56
2023/07/02 06:42:21;;;;;;;21.08;7.55;;;27.40;99.90;;;;;;4952167;29;20035;-56
2023/07/02 06:44:47;;;;;;;12.55;7.53;;;27.50;99.90;;;;;;4935933;29;20039;-56
2023/07/02 06:47:12;;;;;;;11.13;6.70;;;27.40;99.90;;;;;;4934675;29;20032;-56
2023/07/02 06:49:38;;;;;;;15.10;6.80;;;27.50;99.90;;;;;;4934285;29;20103;-56
2023/07/02 06:52:04;;;;;;;13.25;7.63;;;27.50;99.90;;;;;;4934632;29;20380;-56
2023/07/02 06:54:30;;;;;;;17.73;6.88;;;27.50;99.90;;;;;;4934240;29;20505;-55
2023/07/02 06:56:55;;;;;;;12.15;8.00;;;27.50;99.90;;;;;;4934232;29;20480;-56
2023/07/02 06:59:22;;;;;;;15.05;8.90;;;27.50;99.90;;;;;;4934466;29;20115;-56
2023/07/02 07:01:49;;;;;;;12.50;8.55;;;27.50;99.90;;;;;;4946693;28;20050;-56
2023/07/02 07:04:15;;;;;;;11.35;7.20;;;27.50;99.90;;;;;;4947172;29;20067;-56
2023/07/02 07:06:42;;;;;;;18.95;8.57;;;27.60;99.90;;;;;;4939460;29;20051;-56
2023/07/02 07:09:08;;;;;;;17.63;8.40;;;27.50;99.90;;;;;;4944275;28;20448;-56
2023/07/02 07:11:34;;;;;;;12.38;6.97;;;27.50;99.90;;;;;;4950151;29;20028;-56
2023/07/02 07:14:00;;;;;;;15.23;9.73;;;27.60;99.90;;;;;;4948505;29;20035;-56
2023/07/02 07:16:26;;;;;;;12.40;7.20;;;27.50;99.90;;;;;;4951761;29;20027;-56
2023/07/02 07:18:51;;;;;;;12.60;7.47;;;27.60;99.90;;;;;;4937398;29;20031;-56
2023/07/02 07:21:17;;;;;;;12.30;8.15;;;27.60;99.90;;;;;;4955021;29;20043;-56
2023/07/02 07:23:43;;;;;;;11.43;7.30;;;27.50;99.90;;;;;;4947117;29;20032;-56
2023/07/02 07:26:09;;;;;;;17.50;8.18;;;27.60;99.90;;;;;;4936004;29;20095;-56
2023/07/02 07:28:35;;;;;;;12.15;6.97;;;27.60;99.90;;;;;;4937133;29;20032;-56
2023/07/02 07:31:01;;;;;;;13.25;7.95;;;27.50;99.90;;;;;;4937206;29;20016;-56
2023/07/02 07:33:27;;;;;;;10.45;7.55;;;27.50;99.90;;;;;;4937000;29;20039;-56
2023/07/02 07:35:53;;;;;;;13.77;8.40;;;27.60;99.90;;;;;;4937148;29;20236;-56
2023/07/02 07:38:18;;;;;;;15.30;8.63;;;27.60;99.90;;;;;;4939226;29;20032;-56
2023/07/02 07:40:44;;;;;;;13.20;7.97;;;27.60;99.90;;;;;;4937420;29;20020;-55
2023/07/02 07:43:10;;;;;;;11.52;7.40;;;27.60;99.90;;;;;;4949453;29;20106;-55
2023/07/02 07:45:36;;;;;;;10.82;7.53;;;27.70;99.90;;;;;;4936987;29;20039;-56
2023/07/02 07:48:02;;;;;;;10.63;7.22;;;27.60;99.90;;;;;;4936740;29;20392;-56
2023/07/02 07:50:28;;;;;;;11.80;7.13;;;27.70;99.90;;;;;;4936766;29;20159;-56
2023/07/02 07:52:54;;;;;;;12.50;7.50;;;27.70;99.90;;;;;;4936926;29;20035;-56
2023/07/02 07:55:20;;;;;;;12.63;8.43;;;27.70;99.90;;;;;;4946161;29;20023;-55
2023/07/02 07:57:45;;;;;;;12.48;6.85;;;27.70;99.90;;;;;;4940362;29;20030;-55
2023/07/02 08:00:12;;;;;;;13.20;7.13;;;27.80;99.90;;;;;;4936691;29;20035;-56
2023/07/02 08:02:38;;;;;;;14.15;7.75;;;27.80;99.90;;;;;;4949239;29;20043;-55
2023/07/02 08:05:05;;;;;;;9.00;7.10;;;27.80;99.90;;;;;;4936681;29;20504;-55
2023/07/02 08:07:32;;;;;;;12.57;7.88;;;27.90;99.90;;;;;;4936588;29;20035;-56
2023/07/02 08:09:58;;;;;;;11.25;6.97;;;27.90;99.90;;;;;;4949181;28;20360;-56
2023/07/02 08:12:26;;;;;;;12.60;7.22;;;27.90;99.90;;;;;;4936257;29;20111;-56
2023/07/02 08:14:52;;;;;;;10.82;7.10;;;27.90;99.90;;;;;;4936510;29;20112;-56
2023/07/02 08:17:18;;;;;;;12.23;7.57;;;27.90;99.90;;;;;;4936479;29;20122;-56
2023/07/02 08:19:44;;;;;;;13.00;6.72;;;27.90;99.90;;;;;;4935359;29;20103;-56
2023/07/02 08:22:09;;;;;;;12.85;7.40;;;27.90;99.90;;;;;;4936356;29;20463;-56
2023/07/02 08:24:35;;;;;;;11.70;7.30;;;28.00;99.90;;;;;;4936178;29;20103;-55
2023/07/02 08:27:04;;;;;;;12.77;7.55;;;28.00;99.90;;;;;;4936080;29;20026;-55
2023/07/02 08:29:32;;;;;;;10.80;6.30;;;28.00;99.90;;;;;;4949042;29;20023;-56
2023/07/02 08:31:59;;;;;;;13.27;6.82;;;28.00;99.90;;;;;;4936064;29;20042;-56
2023/07/02 08:34:24;;;;;;;14.15;7.22;;;28.00;99.90;;;;;;4937610;29;20028;-56
2023/07/02 08:36:51;;;;;;;11.60;7.63;;;28.00;99.90;;;;;;4947188;28;20429;-56
2023/07/02 08:39:17;;;;;;;12.15;7.68;;;28.00;99.90;;;;;;4949473;29;20022;-56
2023/07/02 08:41:48;;;;;;;20.48;9.68;;;28.10;99.90;;;;;;4937723;28;20059;-56
2023/07/02 08:44:14;;;;;;;10.40;7.40;;;28.10;99.90;;;;;;4934684;29;20370;-56
2023/07/02 08:46:42;;;;;;;16.83;8.18;;;28.10;99.90;;;;;;4941019;29;20019;-55
2023/07/02 08:49:08;;;;;;;10.95;7.07;;;28.10;99.90;;;;;;4943079;29;20043;-56
2023/07/02 08:51:34;;;;;;;11.40;6.80;;;28.10;99.90;;;;;;4938409;29;20484;-55
2023/07/02 08:54:01;;;;;;;11.43;7.72;;;28.10;99.90;;;;;;4943696;29;20457;-56
2023/07/02 08:56:27;;;;;;;10.25;6.80;;;28.10;99.90;;;;;;4950505;29;20027;-56
2023/07/02 08:58:53;;;;;;;10.13;7.45;;;28.10;99.90;;;;;;4946479;28;20042;-56
2023/07/02 09:01:19;;;;;;;10.88;6.93;;;28.10;99.90;;;;;;4943818;29;20043;-56
2023/07/02 09:03:45;;;;;;;12.18;7.18;;;28.20;99.90;;;;;;4941511;28;20020;-56
2023/07/02 09:06:12;;;;;;;12.75;6.85;;;28.20;99.90;;;;;;4935544;29;20020;-56
2023/07/02 09:08:38;;;;;;;8.95;6.80;;;28.20;99.90;;;;;;4935563;29;20054;-56
2023/07/02 09:11:10;;;;;;;9.95;6.53;;;28.20;99.90;;;;;;4935497;29;20078;-56
2023/07/02 09:13:49;;;;;;;19.58;9.63;;;28.20;99.90;;;;;;4948226;29;20369;-56
2023/07/02 09:16:36;;;;;;;13.35;9.35;;;28.20;99.90;;;;;;4947969;28;20020;-57
2023/07/02 09:19:07;;;;;;;11.95;6.88;;;28.30;99.90;;;;;;4935493;29;20016;-55
2023/07/02 09:21:48;;;;;;;10.93;6.65;;;28.30;99.90;;;;;;4943212;29;20027;-56
2023/07/02 09:24:14;;;;;;;13.63;7.18;;;28.30;99.90;;;;;;4948184;29;20081;-57
2023/07/02 09:26:49;;;;;;;11.52;5.93;;;28.30;99.90;;;;;;4935281;29;20059;-56
2023/07/02 09:29:23;;;;;;;16.77;7.18;;;28.30;99.90;;;;;;4935167;29;20114;-57
2023/07/02 09:31:50;;;;;;;11.77;7.45;;;28.30;99.90;;;;;;4947640;29;20019;-57
2023/07/02 09:34:16;;;;;;;12.48;7.97;;;28.30;99.90;;;;;;4941847;29;20023;-57
2023/07/02 09:36:43;;;;;;;9.50;6.40;;;28.30;99.90;;;;;;4945855;29;20054;-57
2023/07/02 09:39:22;;;;;;;11.40;7.47;;;28.40;99.90;;;;;;4954391;28;20051;-57
2023/07/02 09:41:49;;;;;;;11.02;6.78;;;28.50;99.90;;;;;;4945668;29;20487;-56
2023/07/02 09:44:16;;;;;;;12.77;6.68;;;28.40;99.90;;;;;;4934969;29;20051;-56
2023/07/02 09:46:52;;;;;;;10.68;6.13;;;28.50;99.90;;;;;;4942034;29;20062;-56
2023/07/02 09:49:22;;;;;;;10.40;6.32;;;28.50;99.90;;;;;;4937844;29;20046;-57
2023/07/02 09:51:48;;;;;;;10.55;7.00;;;28.50;99.90;;;;;;4934898;29;20020;-57
2023/07/02 09:54:15;;;;;;;16.48;6.43;;;28.50;99.90;;;;;;4934809;29;20046;-57
2023/07/02 09:56:41;;;;;;;11.33;6.50;;;28.60;99.90;;;;;;4941166;29;20023;-57
2023/07/02 09:59:06;;;;;;;8.90;6.43;;;28.60;99.90;;;;;;4941009;28;20379;-56
2023/07/02 10:01:32;;;;;;;9.80;5.85;;;28.60;99.90;;;;;;4941038;29;20054;-57
2023/07/02 10:03:58;;;;;;;12.02;6.90;;;28.60;99.90;;;;;;4942920;29;20380;-57
2023/07/02 10:06:24;;;;;;;11.60;6.82;;;28.60;99.90;;;;;;4934720;29;20432;-57
2023/07/02 10:08:56;;;;;;;10.05;6.28;;;28.70;99.90;;;;;;4944598;29;20041;-57
2023/07/02 10:11:34;;;;;;;9.68;6.30;;;28.70;99.90;;;;;;4950771;29;20026;-57
2023/07/02 10:14:00;;;;;;;11.13;6.18;;;28.70;99.90;;;;;;4934612;29;20028;-57
2023/07/02 10:16:27;;;;;;;10.27;6.95;;;28.70;99.90;;;;;;4937200;29;20035;-57
2023/07/02 10:18:54;;;;;;;9.50;5.90;;;28.80;99.90;;;;;;4944975;28;20506;-57
2023/07/02 10:21:20;;;;;;;8.27;6.43;;;28.80;99.90;;;;;;4941739;29;20155;-56
2023/07/02 10:23:46;;;;;;;10.15;6.18;;;28.80;99.90;;;;;;4953658;29;20443;-57
2023/07/02 10:26:12;;;;;;;12.60;7.93;;;28.80;99.90;;;;;;4945887;29;20050;-57
2023/07/02 10:28:37;;;;;;;9.13;6.45;;;28.80;99.90;;;;;;4934496;29;20496;-57
2023/07/02 10:31:03;;;;;;;12.98;6.85;;;28.80;99.90;;;;;;4942232;29;20027;-57
2023/07/02 10:33:29;;;;;;;10.15;6.30;;;28.80;99.90;;;;;;4953316;29;20031;-56
2023/07/02 10:35:55;;;;;;;15.65;5.88;;;28.90;99.90;;;;;;4941852;28;20020;-57
2023/07/02 10:38:22;;;;;;;12.27;7.45;;;28.90;99.90;;;;;;4950998;29;20027;-54
2023/07/02 10:40:58;;;;;;;12.25;6.18;;;28.90;99.90;;;;;;4951325;28;20094;-56
2023/07/02 10:43:28;;;;;;;13.27;6.60;;;28.90;99.90;;;;;;4935147;29;20027;-55
2023/07/02 10:45:54;;;;;;;9.85;7.43;;;28.90;99.90;;;;;;4939523;29;20028;-55
2023/07/02 10:48:21;;;;;;;12.07;6.93;;;28.90;99.90;;;;;;4947948;29;20040;-56
2023/07/02 10:50:47;;;;;;;7.53;5.90;;;28.90;99.90;;;;;;4936612;29;20023;-55
2023/07/02 10:53:16;;;;;;;14.00;6.45;;;28.90;99.90;;;;;;4937920;29;20365;-58
2023/07/02 10:55:43;;;;;;;10.32;6.40;;;28.90;99.90;;;;;;4953870;29;20038;-56
2023/07/02 10:58:10;;;;;;;14.13;6.90;;;28.90;99.90;;;;;;4952234;28;20106;-55
2023/07/02 11:00:56;;;;;;;13.07;6.97;;;28.90;99.90;;;;;;4956511;28;20511;-57
2023/07/02 11:03:24;;;;;;;10.45;7.07;;;28.90;99.90;;;;;;4956511;29;20047;-57
2023/07/02 11:05:50;;;;;;;14.70;7.20;;;28.90;99.90;;;;;;4956436;28;20039;-58
2023/07/02 11:08:17;;;;;;;12.13;8.13;;;28.90;99.90;;;;;;4956614;28;20460;-58
2023/07/02 11:10:43;;;;;;;14.35;7.20;;;28.90;99.90;;;;;;4956959;28;20110;-55
2023/07/02 11:13:14;;;;;;;12.52;6.68;;;29.00;99.90;;;;;;4956555;28;20023;-58
2023/07/02 11:15:45;;;;;;;16.83;7.55;;;29.00;99.90;;;;;;4956749;28;20027;-55
2023/07/02 11:18:20;;;;;;;16.25;7.28;;;29.00;99.90;;;;;;4956625;28;20420;-55
2023/07/02 11:20:47;;;;;;;10.57;6.75;;;29.00;99.90;;;;;;4953823;28;20028;-56
2023/07/02 11:23:24;;;;;;;14.18;7.47;;;29.00;99.90;;;;;;4956692;28;20029;-56
2023/07/02 11:26:03;;;;;;;9.88;6.38;;;29.00;99.90;;;;;;4955182;29;20035;-56
2023/07/02 11:28:31;;;;;;;10.55;6.88;;;29.00;99.90;;;;;;4956510;28;20039;-56
2023/07/02 11:30:58;;;;;;;16.50;8.88;;;29.00;99.90;;;;;;4955158;29;20062;-54
2023/07/02 11:33:37;;;;;;;11.88;6.65;;;29.00;99.90;;;;;;4956264;28;20031;-54
2023/07/02 11:36:07;;;;;;;11.75;7.47;;;29.00;99.90;;;;;;4956050;28;20031;-55
2023/07/02 11:38:36;;;;;;;12.30;7.20;;;29.00;99.90;;;;;;4956683;28;20012;-54
2023/07/02 11:41:05;;;;;;;14.32;6.88;;;29.00;99.90;;;;;;4956198;29;20028;-53
2023/07/02 11:43:32;;;;;;;10.75;7.03;;;29.00;99.90;;;;;;4954686;29;20466;-57
2023/07/02 11:45:57;;;;;;;14.27;7.87;;;29.00;99.90;;;;;;4948887;28;20539;-57
2023/07/02 11:48:23;;;;;;;11.27;7.45;;;29.00;99.90;;;;;;4953463;28;20035;-54
2023/07/02 11:50:49;;;;;;;13.80;7.38;;;29.00;99.90;;;;;;4960926;28;20026;-57
2023/07/02 11:53:15;;;;;;;13.02;8.02;;;29.00;99.90;;;;;;4953976;28;20552;-57
2023/07/02 11:55:40;;;;;;;13.68;7.20;;;29.00;99.90;;;;;;4967200;28;20047;-58
2023/07/02 11:58:06;;;;;;;14.07;7.28;;;29.00;99.90;;;;;;4951750;28;20486;-58
2023/07/02 12:00:32;;;;;;;10.90;6.57;;;29.10;99.90;;;;;;4951425;28;20019;-57
2023/07/02 12:02:57;;;;;;;11.63;6.90;;;29.00;99.90;;;;;;4954368;28;20523;-54
2023/07/02 12:05:23;;;;;;;11.82;6.47;;;29.00;99.90;;;;;;4952220;28;20016;-56
2023/07/02 12:07:49;;;;;;;12.55;6.72;;;29.00;99.90;;;;;;4954611;28;20039;-54
2023/07/02 12:10:15;;;;;;;11.60;7.20;;;29.00;99.90;;;;;;4956906;28;20494;-56
2023/07/02 12:12:40;;;;;;;11.18;7.50;;;29.00;99.90;;;;;;4958385;28;20053;-55
2023/07/02 12:15:07;;;;;;;11.27;7.30;;;29.00;99.90;;;;;;4952124;28;20039;-54
2023/07/02 12:17:32;;;;;;;12.55;7.03;;;29.00;99.90;;;;;;4952476;28;20102;-54
2023/07/02 12:19:58;;;;;;;14.82;6.55;;;29.00;99.90;;;;;;4952603;28;20027;-54
2023/07/02 12:22:24;;;;;;;11.82;6.55;;;29.00;99.90;;;;;;4958404;28;20105;-56
2023/07/02 12:24:50;;;;;;;8.85;6.32;;;28.90;99.90;;;;;;4959299;28;20059;-56
2023/07/02 12:27:16;;;;;;;10.82;6.47;;;28.90;99.90;;;;;;4948925;28;20122;-58
2023/07/02 12:29:42;;;;;;;12.32;6.40;;;28.90;99.90;;;;;;4954015;28;20031;-57
2023/07/02 12:32:08;;;;;;;11.27;6.32;;;28.90;99.90;;;;;;4962598;28;20052;-56
2023/07/02 12:34:36;;;;;;;10.55;6.38;;;28.90;99.90;;;;;;4961651;28;20058;-56
2023/07/02 12:37:03;;;;;;;11.45;6.95;;;28.90;99.90;;;;;;4957311;28;20023;-56
2023/07/02 12:39:29;;;;;;;9.93;7.20;;;28.90;99.90;;;;;;4947675;28;20027;-56